Time;durP1;ratioP1;P1;durP2;ratioP2;P2;SDS_P1;SDS_P2;PMS_P1;PMS_P2;Temp;Humidity;BMP_temperature;BMP_pressure;BME280_temperature;BME280_humidity;BME280_pressure;Samples;Min_cycle;Max_cycle;Signal;HPM_P1;HPM_P2
2023/01/02 00:00:46;;;;;;;8.30;3.72;;;;;;;12.85;100.00;100026.84;5054737;28;20025;-61
2023/01/02 00:03:12;;;;;;;5.95;3.10;;;;;;;12.81;100.00;100023.56;5054044;28;20029;-61
2023/01/02 00:05:37;;;;;;;11.85;3.78;;;;;;;12.72;100.00;100007.50;5053987;28;20498;-61
2023/01/02 00:08:02;;;;;;;19.75;3.60;;;;;;;12.89;100.00;100030.13;5054502;28;20028;-61
2023/01/02 00:10:28;;;;;;;6.20;3.38;;;;;;;12.87;100.00;100022.34;5049953;28;20372;-61
2023/01/02 00:12:53;;;;;;;12.13;3.85;;;;;;;12.74;100.00;100003.00;5053092;28;20025;-61
2023/01/02 00:15:19;;;;;;;6.93;3.00;;;;;;;12.90;100.00;100026.56;5053864;28;20029;-62
2023/01/02 00:17:44;;;;;;;9.07;3.15;;;;;;;12.86;100.00;100028.53;5054407;28;20467;-61
2023/01/02 00:20:09;;;;;;;5.63;3.25;;;;;;;12.92;100.00;100025.50;5053479;28;20036;-61
2023/01/02 00:22:35;;;;;;;10.43;4.07;;;;;;;12.89;100.00;100030.97;5054268;28;20029;-61
2023/01/02 00:25:00;;;;;;;6.75;3.00;;;;;;;12.36;100.00;99946.66;5053832;28;20487;-61
2023/01/02 00:27:26;;;;;;;8.23;3.50;;;;;;;12.80;100.00;100027.16;5027524;28;20037;-62
2023/01/02 00:29:51;;;;;;;7.95;3.35;;;;;;;12.75;100.00;100029.25;5043636;28;20499;-61
2023/01/02 00:32:16;;;;;;;7.82;3.03;;;;;;;12.73;100.00;100030.28;5051391;28;20123;-61
2023/01/02 00:34:42;;;;;;;9.65;3.80;;;;;;;12.70;100.00;100027.84;5053783;28;20044;-61
2023/01/02 00:37:07;;;;;;;7.47;3.35;;;;;;;12.66;100.00;100026.34;5054121;28;20025;-62
2023/01/02 00:39:33;;;;;;;9.30;3.42;;;;;;;12.66;100.00;100042.16;5052944;28;20108;-61
2023/01/02 00:41:58;;;;;;;7.90;3.33;;;;;;;12.59;100.00;100039.09;5053287;28;20032;-61
2023/01/02 00:44:23;;;;;;;6.35;3.17;;;;;;;12.45;100.00;100025.94;5052032;28;20036;-62
2023/01/02 00:46:49;;;;;;;6.25;3.05;;;;;;;12.28;100.00;100019.09;5053582;28;20028;-62
2023/01/02 00:49:14;;;;;;;8.77;3.20;;;;;;;12.21;100.00;100020.44;5053419;28;20029;-61
2023/01/02 00:51:39;;;;;;;12.45;3.88;;;;;;;12.00;100.00;99989.31;5053703;28;20024;-62
2023/01/02 00:54:05;;;;;;;9.65;3.60;;;;;;;12.04;100.00;100012.75;5053337;28;20162;-61
2023/01/02 00:56:30;;;;;;;14.95;4.53;;;;;;;11.98;100.00;99999.97;5053358;28;20032;-62
2023/01/02 00:58:56;;;;;;;8.95;3.83;;;;;;;11.97;100.00;100008.78;5053492;28;20037;-62
2023/01/02 01:01:21;;;;;;;10.38;3.63;;;;;;;12.00;100.00;100007.75;5053619;28;20041;-62
2023/01/02 01:03:46;;;;;;;9.88;3.85;;;;;;;11.85;100.00;100004.31;5053445;28;20033;-62
2023/01/02 01:06:13;;;;;;;10.07;4.13;;;;;;;11.83;100.00;100014.06;5053113;28;20024;-62
2023/01/02 01:08:39;;;;;;;8.75;3.65;;;;;;;11.43;100.00;99938.47;5053861;28;20479;-62
2023/01/02 01:11:09;;;;;;;5.72;3.72;;;;;;;11.72;100.00;99995.47;5046613;28;20032;-62
2023/01/02 01:13:35;;;;;;;7.72;3.83;;;;;;;11.64;100.00;99984.53;5053665;28;20021;-62
2023/01/02 01:16:09;;;;;;;6.53;3.13;;;;;;;11.65;100.00;99992.34;5053437;28;20150;-62
2023/01/02 01:18:35;;;;;;;10.38;4.20;;;;;;;11.65;100.00;99996.75;5051820;28;20035;-62
2023/01/02 01:21:18;;;;;;;8.65;4.05;;;;;;;11.61;100.00;99995.25;5047568;28;20096;-62
2023/01/02 01:23:44;;;;;;;9.48;4.05;;;;;;;11.51;100.00;99994.09;5023806;28;20025;-62
2023/01/02 01:26:11;;;;;;;8.63;4.35;;;;;;;11.55;100.00;99995.63;5053154;28;20041;-62
2023/01/02 01:28:37;;;;;;;10.45;3.67;;;;;;;11.59;100.00;100002.41;5053184;28;20056;-62
2023/01/02 01:31:13;;;;;;;10.05;3.97;;;;;;;11.62;100.00;100012.72;5052578;28;20534;-62
2023/01/02 01:33:40;;;;;;;9.68;4.32;;;;;;;11.43;100.00;99981.41;5053046;28;20035;-62
2023/01/02 01:36:08;;;;;;;8.45;3.60;;;;;;;11.58;100.00;100011.22;5033438;28;20029;-62
2023/01/02 01:38:33;;;;;;;12.52;5.18;;;;;;;11.61;100.00;100011.03;5053317;28;20471;-62
2023/01/02 01:40:59;;;;;;;6.53;4.32;;;;;;;11.56;100.00;100010.44;5018338;28;20033;-62
2023/01/02 01:43:37;;;;;;;7.43;3.90;;;;;;;11.54;100.00;100020.22;5052548;28;20115;-62
2023/01/02 01:46:06;;;;;;;9.30;4.60;;;;;;;11.52;100.00;100032.66;5068077;28;20021;-62
2023/01/02 01:48:32;;;;;;;19.00;4.22;;;;;;;11.47;100.00;100032.06;5031848;28;20083;-62
2023/01/02 01:50:57;;;;;;;10.02;4.95;;;;;;;11.48;100.00;100037.25;5053043;28;20021;-62
2023/01/02 01:53:23;;;;;;;11.68;4.18;;;;;;;11.54;100.00;100036.00;5052927;28;20524;-62
2023/01/02 01:55:49;;;;;;;7.13;4.55;;;;;;;11.55;100.00;100038.56;5052761;28;20494;-62
2023/01/02 01:58:22;;;;;;;11.15;3.92;;;;;;;11.59;100.00;100036.59;5032050;28;20143;-62
2023/01/02 02:00:47;;;;;;;7.75;4.50;;;;;;;11.57;100.00;100025.31;5036163;28;20029;-61
2023/01/02 02:03:18;;;;;;;9.68;3.95;;;;;;;11.60;100.00;100025.13;5047445;28;20029;-62
2023/01/02 02:05:44;;;;;;;13.15;4.20;;;;;;;11.46;100.00;99997.00;5045683;28;20036;-62
2023/01/02 02:08:12;;;;;;;7.70;4.15;;;;;;;11.55;100.00;100007.00;5029790;28;20025;-62
2023/01/02 02:10:38;;;;;;;18.23;3.97;;;;;;;11.53;100.00;100002.75;5031403;28;20040;-63
2023/01/02 02:13:03;;;;;;;15.73;5.45;;;;;;;11.51;100.00;100009.88;5052563;28;20399;-62
2023/01/02 02:16:04;;;;;;;9.57;4.30;;;;;;;11.49;100.00;100017.84;5052714;28;20386;-62
2023/01/02 02:19:00;;;;;;;7.35;3.90;;;;;;;11.49;100.00;100011.78;5032853;28;20183;-62
2023/01/02 02:21:54;;;;;;;11.32;4.72;;;;;;;11.50;100.00;100016.09;5051899;28;20033;-62
2023/01/02 02:24:35;;;;;;;11.00;4.70;;;;;;;11.47;100.00;100013.63;5052761;28;20044;-62
2023/01/02 02:27:11;;;;;;;6.50;3.75;;;;;;;11.47;100.00;100016.25;5052307;28;20049;-62
2023/01/02 02:30:01;;;;;;;15.27;4.30;;;;;;;11.47;100.00;100018.91;5034458;28;20028;-62
2023/01/02 02:32:45;;;;;;;7.93;4.45;;;;;;;11.50;100.00;100027.47;5052289;28;20376;-62
2023/01/02 02:35:23;;;;;;;19.30;4.72;;;;;;;11.48;100.00;100031.13;5024133;28;20025;-62
2023/01/02 02:37:57;;;;;;;14.90;3.78;;;;;;;11.49;100.00;100032.81;5052010;28;20044;-62
2023/01/02 02:41:01;;;;;;;15.43;4.20;;;;;;;11.46;100.00;100027.72;5034419;28;20049;-62
2023/01/02 02:43:58;;;;;;;10.50;5.00;;;;;;;11.43;100.00;100012.13;5001298;28;20507;-62
2023/01/02 02:46:48;;;;;;;8.20;4.28;;;;;;;11.44;100.00;100017.31;5041529;28;20029;-62
2023/01/02 02:49:34;;;;;;;7.40;3.42;;;;;;;11.45;100.00;100019.00;5051626;28;20036;-62
2023/01/02 02:52:27;;;;;;;9.25;4.40;;;;;;;11.44;100.00;100021.72;5033781;28;20072;-62
2023/01/02 02:54:59;;;;;;;8.60;4.38;;;;;;;11.41;100.00;100016.63;5051990;28;20037;-62
2023/01/02 02:57:25;;;;;;;7.53;4.20;;;;;;;11.26;100.00;99995.56;5039154;28;20029;-62
2023/01/02 02:59:50;;;;;;;9.63;4.05;;;;;;;11.26;100.00;99994.72;5034212;28;20055;-62
2023/01/02 03:02:16;;;;;;;7.25;3.97;;;;;;;11.21;100.00;100002.91;5052433;28;20028;-62
2023/01/02 03:04:44;;;;;;;9.40;4.43;;;;;;;11.34;100.00;100017.94;5055533;28;20029;-62
2023/01/02 03:07:19;;;;;;;10.07;4.70;;;;;;;11.33;100.00;100021.50;5055666;28;20021;-62
2023/01/02 03:09:56;;;;;;;7.28;3.95;;;;;;;11.35;100.00;100024.91;5055709;28;20059;-62
2023/01/02 03:12:40;;;;;;;8.77;4.05;;;;;;;11.28;100.00;100025.28;5049618;28;20029;-63
2023/01/02 03:15:20;;;;;;;7.32;4.13;;;;;;;11.28;100.00;100014.75;5053728;28;20441;-63
2023/01/02 03:18:01;;;;;;;9.55;4.93;;;;;;;11.26;100.00;100016.59;5055507;28;20067;-62
2023/01/02 03:20:34;;;;;;;8.27;4.25;;;;;;;11.26;100.00;100008.72;5056024;28;20037;-63
2023/01/02 03:23:04;;;;;;;7.97;4.47;;;;;;;11.25;100.00;100008.81;5042824;28;20036;-63
2023/01/02 03:25:32;;;;;;;11.75;5.28;;;;;;;11.22;100.00;99999.31;5036871;28;20025;-63
2023/01/02 03:27:58;;;;;;;7.30;4.10;;;;;;;11.20;100.00;99993.31;5037773;28;20091;-63
2023/01/02 03:30:23;;;;;;;17.05;4.60;;;;;;;11.15;100.00;100005.88;5017377;28;20442;-63
2023/01/02 03:33:06;;;;;;;10.20;4.90;;;;;;;11.20;100.00;100022.25;5054963;28;20036;-63
2023/01/02 03:35:35;;;;;;;8.00;4.55;;;;;;;11.19;100.00;100024.94;5037456;28;20017;-63
2023/01/02 03:38:02;;;;;;;10.63;4.57;;;;;;;11.23;100.00;100022.06;5037725;28;20074;-62
2023/01/02 03:40:33;;;;;;;8.50;3.67;;;;;;;11.23;100.00;100037.84;5030577;28;20029;-63
2023/01/02 03:43:14;;;;;;;9.73;4.80;;;;;;;11.24;100.00;100038.69;5037099;28;20060;-63
2023/01/02 03:45:53;;;;;;;6.47;3.75;;;;;;;10.96;100.00;100002.63;5054875;28;20462;-63
2023/01/02 03:48:38;;;;;;;7.45;3.63;;;;;;;11.20;100.00;100032.75;5037800;28;20111;-62
2023/01/02 03:51:03;;;;;;;8.82;4.40;;;;;;;11.24;100.00;100042.16;5046629;28;20033;-62
2023/01/02 03:53:30;;;;;;;8.93;3.53;;;;;;;11.19;100.00;100028.41;5041749;28;20021;-62
2023/01/02 03:56:04;;;;;;;10.48;4.20;;;;;;;11.25;100.00;100043.00;5055048;28;20064;-62
2023/01/02 03:58:49;;;;;;;10.50;4.53;;;;;;;11.26;100.00;100047.31;5033865;28;20037;-62
2023/01/02 04:01:24;;;;;;;13.13;3.75;;;;;;;11.26;100.00;100048.16;5070225;28;20071;-62
2023/01/02 04:03:55;;;;;;;6.28;3.45;;;;;;;11.28;100.00;100055.97;5054885;28;20025;-62
2023/01/02 04:06:29;;;;;;;9.00;4.22;;;;;;;11.12;100.00;100024.44;5036576;28;20032;-62
2023/01/02 04:09:03;;;;;;;13.32;4.05;;;;;;;11.33;100.00;100063.59;5028781;28;20087;-62
2023/01/02 04:11:29;;;;;;;6.60;3.00;;;;;;;11.37;100.00;100055.44;5037124;28;20029;-61
2023/01/02 04:13:58;;;;;;;12.60;3.88;;;;;;;11.28;100.00;100027.06;5054533;28;20033;-62
2023/01/02 04:16:27;;;;;;;7.85;3.38;;;;;;;11.49;100.00;100064.41;5054385;28;20033;-62
2023/01/02 04:19:01;;;;;;;8.45;3.22;;;;;;;11.53;100.00;100055.34;5036422;28;20442;-62
2023/01/02 04:21:29;;;;;;;10.63;3.22;;;;;;;11.52;100.00;100061.59;5031539;28;20079;-62
2023/01/02 04:24:06;;;;;;;6.47;3.03;;;;;;;11.32;100.00;100010.16;5054161;28;20028;-61
2023/01/02 04:26:35;;;;;;;5.80;3.00;;;;;;;11.62;100.00;100053.06;5036617;28;20040;-63
2023/01/02 04:29:01;;;;;;;14.80;3.28;;;;;;;11.66;100.00;100051.91;5053691;28;20025;-62
2023/01/02 04:31:48;;;;;;;5.38;2.40;;;;;;;11.66;100.00;100056.34;5027971;28;20029;-62
2023/01/02 04:34:15;;;;;;;11.65;2.60;;;;;;;11.71;100.00;100065.69;5053498;28;20025;-62
2023/01/02 04:36:40;;;;;;;6.88;2.70;;;;;;;11.74;100.00;100060.22;5054437;28;20021;-62
2023/01/02 04:39:07;;;;;;;4.97;2.60;;;;;;;11.65;100.00;100054.66;5035853;28;20498;-63
2023/01/02 04:41:33;;;;;;;8.95;3.20;;;;;;;11.66;100.00;100062.44;5036429;28;20116;-62
2023/01/02 04:43:58;;;;;;;7.30;2.42;;;;;;;11.74;100.00;100073.41;5035792;28;20274;-62
2023/01/02 04:46:25;;;;;;;5.53;2.63;;;;;;;11.77;100.00;100081.09;5054315;28;20033;-62
2023/01/02 04:48:51;;;;;;;4.57;2.25;;;;;;;11.75;100.00;100082.13;5053977;28;20028;-62
2023/01/02 04:51:17;;;;;;;5.32;2.45;;;;;;;11.79;100.00;100081.03;5053693;28;20024;-62
2023/01/02 04:53:42;;;;;;;5.85;2.35;;;;;;;11.77;100.00;100081.09;5053842;28;20025;-62
2023/01/02 04:56:08;;;;;;;4.68;2.30;;;;;;;11.74;100.00;100070.75;5054228;28;20481;-62
2023/01/02 04:58:33;;;;;;;10.40;2.47;;;;;;;11.73;100.00;100068.22;5048978;28;20378;-62
2023/01/02 05:00:59;;;;;;;4.00;2.20;;;;;;;11.81;100.00;100084.41;5052388;28;20029;-61
2023/01/02 05:03:24;;;;;;;4.97;2.10;;;;;;;11.85;100.00;100082.44;5053667;28;20040;-61
2023/01/02 05:05:49;;;;;;;5.68;2.00;;;;;;;11.75;100.00;100083.00;5054025;28;20025;-61
2023/01/02 05:08:15;;;;;;;5.10;2.88;;;;;;;11.72;100.00;100088.44;5053327;28;20033;-62
2023/01/02 05:10:40;;;;;;;7.28;2.33;;;;;;;11.66;100.00;100093.19;5053848;28;20040;-61
2023/01/02 05:13:06;;;;;;;5.28;2.22;;;;;;;11.60;100.00;100093.53;5053324;28;20182;-62
2023/01/02 05:15:31;;;;;;;6.32;2.20;;;;;;;11.62;100.00;100096.94;5051770;28;20035;-62
2023/01/02 05:17:57;;;;;;;5.30;2.20;;;;;;;11.57;100.00;100104.25;5052929;28;20029;-62
2023/01/02 05:20:23;;;;;;;4.30;1.85;;;;;;;11.27;100.00;100063.03;5053852;28;20028;-61
2023/01/02 05:25:34;;;;;;;6.90;2.40;;;;;;;11.53;100.00;100134.28;5052724;28;20044;-62
2023/01/02 05:28:01;;;;;;;13.77;2.40;;;;;;;11.47;100.00;100125.00;5018666;28;20483;-62
2023/01/02 05:30:26;;;;;;;7.40;2.33;;;;;;;11.36;100.00;100123.91;5045767;28;20507;-62
2023/01/02 05:32:52;;;;;;;6.85;2.72;;;;;;;11.35;100.00;100125.72;5053343;28;20025;-62
2023/01/02 05:35:17;;;;;;;12.50;2.88;;;;;;;11.30;100.00;100135.63;5052827;28;20410;-63
2023/01/02 05:37:43;;;;;;;9.32;3.17;;;;;;;11.25;100.00;100146.41;5053430;28;20036;-63
2023/01/02 05:40:09;;;;;;;4.63;2.88;;;;;;;11.04;100.00;100126.59;5052580;28;20028;-62
2023/01/02 05:42:34;;;;;;;11.00;2.88;;;;;;;11.14;100.00;100147.97;5052715;28;20403;-62
2023/01/02 05:45:00;;;;;;;7.25;2.92;;;;;;;11.05;100.00;100149.31;5052953;28;20025;-62
2023/01/02 05:47:25;;;;;;;5.88;3.05;;;;;;;10.99;100.00;100128.63;5053096;28;20087;-63
2023/01/02 05:49:50;;;;;;;5.85;2.90;;;;;;;10.59;100.00;100068.72;5052943;28;20083;-63
2023/01/02 05:52:16;;;;;;;7.50;3.10;;;;;;;11.05;100.00;100149.31;5052273;28;20223;-62
2023/01/02 05:54:41;;;;;;;11.57;2.38;;;;;;;11.02;100.00;100154.75;5053055;28;20495;-62
2023/01/02 05:57:06;;;;;;;7.63;2.72;;;;;;;11.00;100.00;100151.38;5034826;28;20116;-62
2023/01/02 05:59:32;;;;;;;4.50;2.80;;;;;;;10.98;100.00;100148.00;5052794;28;20025;-62
2023/01/02 06:01:57;;;;;;;4.97;2.50;;;;;;;10.98;100.00;100149.78;5047880;28;20022;-62
2023/01/02 06:04:23;;;;;;;9.75;3.08;;;;;;;10.85;100.00;100127.72;5043804;28;20052;-62
2023/01/02 06:06:48;;;;;;;7.25;3.28;;;;;;;10.88;100.00;100140.69;5052556;28;20137;-63
2023/01/02 06:09:14;;;;;;;4.63;2.58;;;;;;;10.90;100.00;100160.72;5049263;28;20043;-63
2023/01/02 06:11:40;;;;;;;6.57;3.03;;;;;;;10.86;100.00;100153.91;5052600;28;20053;-62
2023/01/02 06:14:07;;;;;;;5.53;3.20;;;;;;;10.90;100.00;100162.47;5052745;28;20518;-63
2023/01/02 06:16:33;;;;;;;6.57;3.33;;;;;;;10.92;100.00;100169.34;5039930;28;20031;-63
2023/01/02 06:18:58;;;;;;;6.07;2.85;;;;;;;10.89;100.00;100160.78;5052001;28;20102;-63
2023/01/02 06:21:23;;;;;;;5.78;2.67;;;;;;;10.89;100.00;100164.25;5052432;28;20025;-62
2023/01/02 06:23:53;;;;;;;5.50;2.40;;;;;;;10.90;100.00;100165.97;5052348;28;20423;-62
2023/01/02 06:26:19;;;;;;;8.52;3.13;;;;;;;10.87;100.00;100162.66;5040335;28;20025;-63
2023/01/02 06:28:47;;;;;;;11.00;3.28;;;;;;;10.88;100.00;100175.72;5051892;28;20033;-63
2023/01/02 06:31:16;;;;;;;5.90;3.33;;;;;;;10.86;100.00;100174.09;5052363;28;20039;-63
2023/01/02 06:33:42;;;;;;;6.95;3.00;;;;;;;10.83;100.00;100180.38;5052151;28;20020;-63
2023/01/02 06:36:13;;;;;;;4.63;2.75;;;;;;;10.69;100.00;100165.34;5041754;28;20494;-63
2023/01/02 06:38:38;;;;;;;8.80;3.30;;;;;;;10.85;100.00;100186.38;5052514;28;20029;-64
2023/01/02 06:41:05;;;;;;;5.13;3.00;;;;;;;10.84;100.00;100182.06;5055757;28;20429;-63
2023/01/02 06:43:31;;;;;;;7.28;3.30;;;;;;;10.85;100.00;100178.50;5043120;28;20095;-63
2023/01/02 06:46:03;;;;;;;6.72;3.72;;;;;;;10.66;100.00;100177.81;5055308;28;20494;-64
2023/01/02 06:48:28;;;;;;;7.38;3.95;;;;;;;10.84;100.00;100208.34;5056107;28;20662;-63
2023/01/02 06:50:53;;;;;;;6.05;3.50;;;;;;;10.83;100.00;100208.44;5037770;28;20079;-63
2023/01/02 06:53:19;;;;;;;10.38;3.03;;;;;;;10.82;100.00;100204.94;5055788;28;20029;-64
2023/01/02 06:55:51;;;;;;;8.00;3.10;;;;;;;10.80;100.00;100219.09;5045606;28;20026;-63
2023/01/02 06:58:16;;;;;;;7.40;3.60;;;;;;;10.74;100.00;100201.91;5049857;28;20107;-63
2023/01/02 07:00:41;;;;;;;7.97;3.88;;;;;;;10.75;100.00;100220.19;5038227;28;20495;-64
2023/01/02 07:03:07;;;;;;;10.25;3.88;;;;;;;10.71;100.00;100226.53;5055800;28;20140;-64
2023/01/02 07:05:32;;;;;;;12.43;4.32;;;;;;;10.74;100.00;100230.81;5055765;28;20032;-64
2023/01/02 07:07:58;;;;;;;7.07;3.38;;;;;;;10.75;100.00;100219.34;5055557;28;20037;-64
2023/01/02 07:10:23;;;;;;;6.80;3.65;;;;;;;10.76;100.00;100236.81;5053725;28;20033;-63
2023/01/02 07:12:48;;;;;;;9.95;3.75;;;;;;;10.68;100.00;100244.25;5053600;28;20108;-63
2023/01/02 07:15:14;;;;;;;5.45;3.00;;;;;;;10.72;100.00;100256.31;5056080;28;20079;-63
2023/01/02 07:17:39;;;;;;;5.70;3.00;;;;;;;10.71;100.00;100257.25;5054729;28;20065;-64
2023/01/02 07:20:05;;;;;;;14.10;3.00;;;;;;;10.75;100.00;100267.50;5055846;28;20028;-64
2023/01/02 07:22:31;;;;;;;6.43;3.45;;;;;;;10.68;100.00;100260.03;5055043;28;20080;-64
2023/01/02 07:24:56;;;;;;;11.60;3.75;;;;;;;10.71;100.00;100271.22;5055932;28;20064;-64
2023/01/02 07:27:21;;;;;;;9.75;2.80;;;;;;;10.64;100.00;100274.28;5055321;28;20025;-63
2023/01/02 07:29:47;;;;;;;9.95;2.80;;;;;;;10.56;100.00;100265.94;5055632;28;20079;-64
2023/01/02 07:32:12;;;;;;;5.38;2.83;;;;;;;10.59;100.00;100281.53;5054321;28;20040;-63
2023/01/02 07:34:38;;;;;;;8.05;2.92;;;;;;;10.50;100.00;100272.38;5054366;28;20431;-64
2023/01/02 07:37:03;;;;;;;5.70;2.42;;;;;;;10.62;100.00;100305.00;5069643;28;20105;-64
2023/01/02 07:39:28;;;;;;;5.15;2.63;;;;;;;10.59;100.00;100328.81;5053637;28;20032;-63
2023/01/02 07:41:54;;;;;;;5.50;2.47;;;;;;;10.59;100.00;100344.59;5053589;28;20033;-63
2023/01/02 07:44:19;;;;;;;4.25;2.00;;;;;;;10.50;100.00;100350.31;5054007;28;20103;-62
2023/01/02 07:46:44;;;;;;;3.92;1.45;;;;;;;10.37;100.00;100359.75;5053574;28;20091;-65
2023/01/02 07:49:11;;;;;;;3.10;1.83;;;;;;;10.25;100.00;100371.69;5051070;28;20100;-63
2023/01/02 07:51:37;;;;;;;4.30;1.40;;;;;;;9.79;100.00;100315.31;5054689;28;20127;-63
2023/01/02 07:54:02;;;;;;;2.58;1.27;;;;;;;10.02;100.00;100383.28;5054066;28;20021;-64
2023/01/02 07:56:27;;;;;;;3.85;1.45;;;;;;;9.90;100.00;100393.53;5052684;28;20029;-63
2023/01/02 07:58:53;;;;;;;2.70;1.33;;;;;;;9.71;100.00;100390.91;5053609;28;20111;-63
2023/01/02 08:01:18;;;;;;;2.50;1.27;;;;;;;9.70;100.00;100394.44;5054826;28;20043;-63
2023/01/02 08:03:44;;;;;;;2.58;1.38;;;;;;;9.61;100.00;100395.72;5036259;28;20024;-63
2023/01/02 08:06:12;;;;;;;2.78;1.30;;;;;;;9.65;100.00;100406.94;5054149;28;20029;-63
2023/01/02 08:08:38;;;;;;;2.22;1.05;;;;;;;9.56;100.00;100415.25;5046131;28;20035;-63
2023/01/02 08:11:08;;;;;;;3.20;1.90;;;;;;;9.54;100.00;100428.41;5036243;28;20531;-63
2023/01/02 08:13:34;;;;;;;4.53;1.85;;;;;;;9.49;100.00;100432.19;5050609;28;20380;-63
2023/01/02 08:16:09;;;;;;;5.45;3.15;;;;;;;9.43;100.00;100432.47;5040508;28;20033;-63
2023/01/02 08:18:35;;;;;;;5.50;2.53;;;;;;;9.39;100.00;100442.22;5054635;28;20079;-63
2023/01/02 08:21:01;;;;;;;4.40;3.03;;;;;;;9.33;100.00;100446.91;5053423;28;20028;-63
2023/01/02 08:23:26;;;;;;;4.30;2.83;;;;;;;9.30;100.00;100447.00;5050501;28;20468;-63
2023/01/02 08:25:51;;;;;;;4.75;3.10;;;;;;;9.29;100.00;100445.31;5039815;28;20025;-63
2023/01/02 08:28:17;;;;;;;6.50;3.53;;;;;;;9.23;100.00;100449.91;5047554;28;20399;-62
2023/01/02 08:30:42;;;;;;;4.25;2.80;;;;;;;9.18;100.00;100446.66;5054356;28;20533;-63
2023/01/02 08:33:08;;;;;;;3.80;2.30;;;;;;;9.23;100.00;100470.03;5053956;28;20033;-63
2023/01/02 08:35:33;;;;;;;6.95;3.42;;;;;;;9.04;100.00;100441.16;5054011;28;20099;-63
2023/01/02 08:37:59;;;;;;;5.13;2.70;;;;;;;8.80;100.00;100404.66;5050762;28;20032;-63
2023/01/02 08:40:25;;;;;;;5.20;2.92;;;;;;;9.22;100.00;100492.78;5054349;28;20027;-63
2023/01/02 08:42:50;;;;;;;5.78;3.63;;;;;;;9.19;100.00;100492.91;5053541;28;20117;-63
2023/01/02 08:45:15;;;;;;;5.35;3.17;;;;;;;9.17;100.00;100494.75;5053715;28;20399;-63
2023/01/02 08:47:41;;;;;;;4.45;2.95;;;;;;;9.20;100.00;100499.00;5053017;28;20025;-63
2023/01/02 08:50:07;;;;;;;6.57;3.97;;;;;;;9.12;100.00;100486.25;5052276;28;20107;-63
2023/01/02 08:52:32;;;;;;;5.85;3.88;;;;;;;9.18;100.00;100498.22;5053672;28;20029;-63
2023/01/02 08:54:59;;;;;;;6.85;4.05;;;;;;;9.18;100.00;100490.34;5032181;28;20031;-63
2023/01/02 08:57:25;;;;;;;5.68;4.07;;;;;;;9.14;100.00;100484.41;5052898;28;20025;-63
2023/01/02 08:59:50;;;;;;;5.85;3.78;;;;;;;9.18;100.00;100501.69;5052810;28;20029;-63
2023/01/02 09:02:16;;;;;;;5.65;4.60;;;;;;;9.05;100.00;100479.56;5053438;28;20036;-63
2023/01/02 09:04:41;;;;;;;5.93;4.72;;;;;;;9.12;100.00;100490.63;5053267;28;20040;-63
2023/01/02 09:07:07;;;;;;;9.27;5.35;;;;;;;9.12;100.00;100496.72;5053309;28;20033;-63
2023/01/02 09:09:32;;;;;;;8.48;5.75;;;;;;;9.17;100.00;100514.84;5051931;28;20091;-63
2023/01/02 09:11:59;;;;;;;7.57;5.13;;;;;;;9.19;100.00;100513.03;5052898;28;20348;-63
2023/01/02 09:14:24;;;;;;;8.75;6.38;;;;;;;9.08;100.00;100496.91;5051278;28;20044;-63
2023/01/02 09:16:50;;;;;;;9.18;6.13;;;;;;;9.20;100.00;100520.81;5053083;28;20029;-63
2023/01/02 09:19:16;;;;;;;10.45;6.28;;;;;;;9.12;100.00;100506.34;5051822;28;20025;-63
2023/01/02 09:21:41;;;;;;;10.52;7.45;;;;;;;9.22;100.00;100534.75;5064626;28;20032;-63
2023/01/02 09:24:07;;;;;;;8.43;6.43;;;;;;;9.24;100.00;100540.75;5049443;28;20025;-63
2023/01/02 09:26:33;;;;;;;9.23;6.50;;;;;;;9.26;100.00;100539.84;5051614;28;20040;-63
2023/01/02 09:28:58;;;;;;;12.65;7.65;;;;;;;9.23;100.00;100552.16;5052300;28;20518;-63
2023/01/02 09:31:24;;;;;;;9.38;7.22;;;;;;;9.30;100.00;100565.84;5034396;28;20044;-63
2023/01/02 09:33:52;;;;;;;8.57;7.55;;;;;;;9.22;100.00;100558.34;5052163;28;20029;-63
2023/01/02 09:36:18;;;;;;;10.40;7.93;;;;;;;9.29;100.00;100569.41;5031812;28;20483;-63
2023/01/02 09:38:52;;;;;;;11.30;7.47;;;;;;;9.28;100.00;100569.47;5043955;28;20505;-63
2023/01/02 09:41:20;;;;;;;11.95;7.68;;;;;;;9.30;100.00;100580.72;5043637;28;20037;-63
2023/01/02 09:43:52;;;;;;;9.25;8.00;;;;;;;9.31;100.00;100587.69;5052464;28;20537;-63
2023/01/02 09:46:42;;;;;;;12.82;8.45;;;;;;;9.34;100.00;100584.94;5033150;28;20483;-63
2023/01/02 09:49:12;;;;;;;13.23;9.63;;;;;;;9.34;100.00;100591.03;5033051;28;20570;-63
2023/01/02 09:51:39;;;;;;;10.25;8.23;;;;;;;9.30;100.00;100578.97;5026294;28;20056;-63
2023/01/02 09:54:37;;;;;;;13.07;9.85;;;;;;;9.30;100.00;100589.44;5047527;28;20391;-63
2023/01/02 09:57:44;;;;;;;15.70;10.15;;;;;;;9.26;100.00;100593.13;5033937;28;20139;-63
2023/01/02 10:00:21;;;;;;;11.48;9.43;;;;;;;9.30;100.00;100599.09;4954345;28;20062;-63
2023/01/02 10:03:17;;;;;;;13.70;9.77;;;;;;;9.29;100.00;100618.38;4974859;28;20042;-63
2023/01/02 10:06:07;;;;;;;12.90;9.77;;;;;;;9.30;100.00;100615.66;5018427;28;20044;-63
2023/01/02 10:09:05;;;;;;;13.45;9.45;;;;;;;9.23;100.00;100616.84;5048944;28;20098;-63
2023/01/02 10:12:02;;;;;;;12.82;8.80;;;;;;;9.13;100.00;100603.25;5032972;28;20162;-63
2023/01/02 10:14:31;;;;;;;13.15;9.05;;;;;;;9.24;100.00;100611.53;5010565;28;20024;-63
2023/01/02 10:16:58;;;;;;;11.93;8.30;;;;;;;9.27;100.00;100615.81;5035623;28;20120;-64
2023/01/02 10:19:41;;;;;;;10.77;7.15;;;;;;;9.23;100.00;100614.22;5020269;28;20088;-64
2023/01/02 10:22:10;;;;;;;8.60;6.05;;;;;;;9.29;100.00;100623.63;5018423;28;20216;-63
2023/01/02 10:24:38;;;;;;;8.30;4.85;;;;;;;9.19;100.00;100617.91;5022068;28;20029;-64
2023/01/02 10:27:05;;;;;;;8.25;5.43;;;;;;;9.11;100.00;100623.44;5041629;28;20033;-63
2023/01/02 10:29:42;;;;;;;7.63;5.00;;;;;;;9.10;100.00;100619.13;5057727;28;20039;-63
2023/01/02 10:32:15;;;;;;;7.63;4.53;;;;;;;9.03;100.00;100622.91;5025218;28;20041;-63
2023/01/02 10:34:53;;;;;;;6.53;3.63;;;;;;;8.98;100.00;100626.63;5025918;28;20059;-64
2023/01/02 10:37:18;;;;;;;5.57;3.58;;;;;;;8.97;100.00;100628.38;5019882;28;20036;-63
2023/01/02 10:39:45;;;;;;;7.18;4.07;;;;;;;8.81;100.00;100606.34;5006389;28;20799;-64
2023/01/02 10:42:13;;;;;;;5.55;3.85;;;;;;;8.92;100.00;100627.69;5004817;28;20033;-62
2023/01/02 10:44:39;;;;;;;6.65;4.38;;;;;;;8.69;100.00;100607.66;5006530;28;21015;-63
2023/01/02 10:47:25;;;;;;;6.90;4.10;;;;;;;8.79;100.00;100623.88;5005348;28;20083;-64
2023/01/02 10:49:52;;;;;;;6.40;4.75;;;;;;;8.72;100.00;100625.00;4996848;28;20024;-65
2023/01/02 10:52:25;;;;;;;5.53;4.25;;;;;;;8.80;100.00;100632.59;4987735;28;20033;-63
2023/01/02 10:54:52;;;;;;;9.30;4.20;;;;;;;8.79;100.00;100639.59;4993799;28;20769;-60
2023/01/02 10:57:42;;;;;;;6.70;5.20;;;;;;;8.80;100.00;100641.31;5005229;28;20091;-60
2023/01/02 11:00:16;;;;;;;9.70;5.03;;;;;;;8.80;100.00;100641.31;4998952;28;20049;-63
2023/01/02 11:02:42;;;;;;;8.07;5.47;;;;;;;8.58;100.00;100598.53;5005087;28;20091;-64
2023/01/02 11:05:18;;;;;;;8.98;5.10;;;;;;;8.82;100.00;100636.84;5006652;28;20025;-64
2023/01/02 11:07:47;;;;;;;6.53;5.13;;;;;;;8.80;100.00;100635.19;5007034;28;20044;-64
2023/01/02 11:10:31;;;;;;;7.82;4.28;;;;;;;8.75;100.00;100621.44;4987470;28;20060;-64
2023/01/02 11:13:08;;;;;;;8.65;5.25;;;;;;;8.82;100.00;100638.63;4988200;28;20470;-64
2023/01/02 11:15:34;;;;;;;6.75;4.90;;;;;;;8.85;100.00;100642.00;5005814;28;20909;-64
2023/01/02 11:18:01;;;;;;;12.77;5.53;;;;;;;8.82;100.00;100639.47;5005278;28;20976;-64
2023/01/02 11:20:33;;;;;;;9.40;6.32;;;;;;;8.85;100.00;100634.13;4992891;28;20039;-63
2023/01/02 11:23:01;;;;;;;10.77;5.75;;;;;;;8.89;100.00;100646.16;4988347;28;20180;-64
2023/01/02 11:25:31;;;;;;;7.78;5.30;;;;;;;8.76;100.00;100636.22;5008149;28;20045;-64
2023/01/02 11:27:59;;;;;;;10.57;6.43;;;;;;;8.82;100.00;100642.09;5006492;28;20828;-64
2023/01/02 11:30:47;;;;;;;8.40;6.13;;;;;;;8.94;100.00;100659.97;4996436;28;20144;-63